Time;durP1;ratioP1;P1;durP2;ratioP2;P2;SDS_P1;SDS_P2;PMS_P1;PMS_P2;Temp;Humidity;BMP_temperature;BMP_pressure;BME280_temperature;BME280_humidity;BME280_pressure;Samples;Min_cycle;Max_cycle;Signal;HPM_P1;HPM_P2
2023/06/28 00:01:30;;;;;;;9.70;3.40;;;;;;;12.84;100.00;101067.19;4955263;29;20023;-87
2023/06/28 00:03:58;;;;;;;12.07;4.47;;;;;;;12.90;100.00;101065.69;4955158;29;20035;-87
2023/06/28 00:06:23;;;;;;;8.80;3.20;;;;;;;12.89;100.00;101056.81;4954926;28;20031;-85
2023/06/28 00:08:49;;;;;;;9.30;3.43;;;;;;;12.88;100.00;101067.72;4971418;28;20031;-87
2023/06/28 00:11:14;;;;;;;6.90;3.37;;;;;;;12.88;100.00;101067.72;4955136;28;20023;-86
2023/06/28 00:13:40;;;;;;;11.13;4.47;;;;;;;12.83;100.00;101051.28;4971088;28;20038;-86
2023/06/28 00:16:05;;;;;;;6.27;3.40;;;;;;;12.89;100.00;101058.66;4954839;28;20054;-87
2023/06/28 00:18:32;;;;;;;10.30;3.47;;;;;;;12.92;100.00;101057.47;4954400;29;20039;-86
2023/06/28 00:20:58;;;;;;;7.38;4.03;;;;;;;12.88;100.00;101057.81;4954757;28;20023;-86
2023/06/28 00:23:23;;;;;;;16.40;3.50;;;;;;;12.82;100.00;101046.94;4954451;28;20106;-86
2023/06/28 00:25:49;;;;;;;13.23;4.70;;;;;;;12.90;100.00;101063.03;4971866;28;20050;-84
2023/06/28 00:28:14;;;;;;;13.47;4.17;;;;;;;12.88;100.00;101057.81;4968707;28;20035;-85
2023/06/28 00:30:39;;;;;;;13.00;3.60;;;;;;;12.88;100.00;101071.22;4958998;28;20042;-87
2023/06/28 00:33:05;;;;;;;11.33;4.43;;;;;;;12.80;100.00;101060.50;4958125;28;20286;-86
2023/06/28 00:35:31;;;;;;;14.88;3.88;;;;;;;12.76;100.00;101051.16;4953090;28;20034;-87
2023/06/28 00:37:57;;;;;;;10.20;3.53;;;;;;;12.87;100.00;101050.78;4942140;29;20035;-86
2023/06/28 00:40:22;;;;;;;9.70;3.60;;;;;;;12.95;100.00;101054.47;4942466;28;20298;-86
2023/06/28 00:42:48;;;;;;;12.20;4.10;;;;;;;12.95;100.00;101039.22;4973861;28;20688;-87
2023/06/28 00:45:16;;;;;;;9.45;3.97;;;;;;;12.94;100.00;101040.22;4958926;28;20031;-87
2023/06/28 00:47:42;;;;;;;11.47;5.07;;;;;;;12.89;100.00;101037.22;4957365;29;20391;-86
2023/06/28 00:50:08;;;;;;;;;;;;;;;12.83;100.00;101043.25;4964392;28;20074;-86
2023/06/28 00:52:35;;;;;;;9.77;4.10;;;;;;;12.84;100.00;101055.66;4983808;28;19918;-87
2023/06/28 00:55:00;;;;;;;;;;;;;;;12.78;100.00;101062.53;4955980;28;20490;-86
2023/06/28 00:57:27;;;;;;;7.68;3.60;;;;;;;12.74;100.00;101065.72;4971801;28;19938;-87
2023/06/28 00:59:53;;;;;;;9.90;3.38;;;;;;;12.82;100.00;101068.38;4954980;28;20030;-86
2023/06/28 01:02:21;;;;;;;8.93;3.70;;;;;;;12.64;100.00;101056.00;4970662;28;20043;-86
2023/06/28 01:04:48;;;;;;;12.60;4.57;;;;;;;12.66;100.00;101075.41;4955124;28;20031;-86
2023/06/28 01:07:14;;;;;;;12.32;3.50;;;;;;;12.67;100.00;101087.81;4955279;28;20047;-86
2023/06/28 01:09:43;;;;;;;8.98;4.45;;;;;;;12.67;100.00;101079.78;4954311;29;20106;-86
2023/06/28 01:12:09;;;;;;;7.90;3.95;;;;;;;12.66;100.00;101086.13;4953873;28;20019;-86
2023/06/28 01:14:36;;;;;;;6.95;3.35;;;;;;;12.63;100.00;101088.31;4953834;28;20035;-86
2023/06/28 01:17:01;;;;;;;6.72;3.90;;;;;;;12.66;100.00;101096.84;4953646;28;20119;-86
2023/06/28 01:19:31;;;;;;;11.10;3.73;;;;;;;12.59;100.00;101087.81;4953554;28;20042;-86
2023/06/28 01:22:01;;;;;;;12.93;4.35;;;;;;;12.61;100.00;101093.84;4937750;29;20035;-85
2023/06/28 01:24:27;;;;;;;19.13;5.60;;;;;;;12.59;100.00;101101.19;4969198;28;20055;-85
2023/06/28 01:26:54;;;;;;;13.38;4.20;;;;;;;12.59;100.00;101103.88;4953736;28;20027;-87
2023/06/28 01:29:23;;;;;;;11.25;4.35;;;;;;;12.58;100.00;101110.25;4967889;28;20079;-86
2023/06/28 01:31:50;;;;;;;7.68;3.60;;;;;;;12.58;100.00;101110.25;4937361;29;20815;-86
2023/06/28 01:34:16;;;;;;;11.90;3.55;;;;;;;12.56;100.00;101111.41;4953214;28;20022;-86
2023/06/28 01:36:42;;;;;;;10.88;4.22;;;;;;;12.54;100.00;101113.41;4952912;29;20089;-87
2023/06/28 01:39:08;;;;;;;13.32;3.63;;;;;;;12.62;100.00;101114.28;4933360;29;20028;-86
2023/06/28 01:41:34;;;;;;;11.70;4.10;;;;;;;12.59;100.00;101113.75;4952797;29;20038;-86
2023/06/28 01:43:59;;;;;;;10.07;3.90;;;;;;;12.56;100.00;101111.41;4952892;28;20027;-87
2023/06/28 01:46:25;;;;;;;8.27;4.50;;;;;;;12.61;100.00;101125.97;4936634;29;20042;-86
2023/06/28 01:48:50;;;;;;;8.10;3.83;;;;;;;12.58;100.00;101122.81;4952529;28;20282;-86
2023/06/28 01:51:16;;;;;;;13.97;4.83;;;;;;;12.54;100.00;101114.25;4969357;28;20039;-86
2023/06/28 01:53:41;;;;;;;13.02;4.15;;;;;;;12.49;100.00;101119.28;4952159;28;20038;-86
2023/06/28 01:56:07;;;;;;;29.33;5.07;;;;;;;12.55;100.00;101121.31;4935757;29;20078;-86
2023/06/28 01:58:32;;;;;;;11.23;5.30;;;;;;;12.59;100.00;101132.50;4952425;28;20134;-86
2023/06/28 02:00:58;;;;;;;11.80;3.93;;;;;;;12.62;100.00;101130.34;4962486;28;20039;-87
2023/06/28 02:03:23;;;;;;;7.33;4.27;;;;;;;12.52;100.00;101131.50;4949067;28;20078;-86
2023/06/28 02:05:49;;;;;;;10.63;3.75;;;;;;;12.56;100.00;101122.97;4943680;29;20486;-86
2023/06/28 02:08:14;;;;;;;14.10;4.50;;;;;;;12.57;100.00;101123.78;4951829;28;20537;-86
2023/06/28 02:10:39;;;;;;;6.57;3.87;;;;;;;12.59;100.00;101119.09;4951975;29;20039;-86
2023/06/28 02:13:05;;;;;;;14.43;4.10;;;;;;;12.45;100.00;101105.41;4935792;28;20023;-87
2023/06/28 02:15:30;;;;;;;14.90;4.47;;;;;;;12.49;100.00;101118.44;4967215;28;20070;-86
2023/06/28 02:17:58;;;;;;;16.53;3.93;;;;;;;12.47;100.00;101118.59;4951856;28;20024;-86
2023/06/28 02:20:24;;;;;;;12.45;4.32;;;;;;;12.44;100.00;101108.22;4952305;28;20043;-85
2023/06/28 02:22:49;;;;;;;11.27;4.05;;;;;;;12.43;100.00;101126.16;4967369;28;20474;-87
2023/06/28 02:25:15;;;;;;;13.37;4.27;;;;;;;12.49;100.00;101131.84;4951486;29;20086;-86
2023/06/28 02:27:40;;;;;;;9.97;3.83;;;;;;;12.43;100.00;101122.59;4951661;28;20043;-86
2023/06/28 02:30:07;;;;;;;10.90;5.05;;;;;;;12.42;100.00;101113.75;4951634;28;20321;-86
2023/06/28 02:32:33;;;;;;;9.48;3.95;;;;;;;12.38;100.00;101119.59;4967660;28;20039;-86
2023/06/28 02:34:58;;;;;;;9.17;4.73;;;;;;;12.42;100.00;101115.59;4934066;29;20486;-86
2023/06/28 02:37:25;;;;;;;11.17;5.20;;;;;;;12.39;100.00;101116.75;4951787;28;20035;-86
2023/06/28 02:39:50;;;;;;;9.65;3.97;;;;;;;12.47;100.00;101123.97;4951931;28;20042;-86
2023/06/28 02:42:15;;;;;;;7.67;3.63;;;;;;;12.47;100.00;101126.63;4952082;29;20035;-86
2023/06/28 02:44:41;;;;;;;12.10;3.90;;;;;;;12.45;100.00;101110.75;4935354;29;20279;-87
2023/06/28 02:47:06;;;;;;;6.80;3.28;;;;;;;12.46;100.00;101111.59;4935067;29;20059;-86
2023/06/28 02:49:33;;;;;;;10.53;3.90;;;;;;;12.36;100.00;101111.75;4951156;28;20446;-87
2023/06/28 02:51:58;;;;;;;11.90;4.15;;;;;;;12.34;100.00;101102.16;4951719;29;20039;-86
2023/06/28 02:54:24;;;;;;;8.83;4.10;;;;;;;12.36;100.00;101110.88;4951046;28;20031;-86
2023/06/28 02:56:49;;;;;;;16.07;5.07;;;;;;;12.36;100.00;101102.84;4967032;28;20035;-86
2023/06/28 02:59:14;;;;;;;11.13;3.60;;;;;;;12.43;100.00;101117.25;4967626;28;20026;-87
2023/06/28 03:01:40;;;;;;;9.73;4.80;;;;;;;12.42;100.00;101105.72;4951101;28;20417;-87
2023/06/28 03:04:07;;;;;;;7.50;3.83;;;;;;;12.40;100.00;101113.06;4951246;28;20033;-87
2023/06/28 03:06:34;;;;;;;12.23;4.72;;;;;;;12.42;100.00;101118.25;4952132;28;21074;-86
2023/06/28 03:09:00;;;;;;;10.23;5.35;;;;;;;12.45;100.00;101117.94;4935941;29;20019;-86
2023/06/28 03:11:25;;;;;;;7.43;3.70;;;;;;;12.46;100.00;101127.66;4943420;28;20577;-86
2023/06/28 03:13:50;;;;;;;12.40;5.97;;;;;;;12.51;100.00;101130.66;4954077;28;20110;-86
2023/06/28 03:16:16;;;;;;;9.43;4.73;;;;;;;12.55;100.00;101126.66;4955022;28;20397;-86
2023/06/28 03:18:41;;;;;;;8.07;3.63;;;;;;;12.65;100.00;101124.66;4954500;28;20061;-86
2023/06/28 03:21:07;;;;;;;16.33;4.13;;;;;;;12.57;100.00;101097.00;4954353;28;20086;-86
2023/06/28 03:23:33;;;;;;;11.10;4.57;;;;;;;12.56;100.00;101112.25;4954263;28;20027;-86
2023/06/28 03:25:59;;;;;;;10.67;4.17;;;;;;;12.61;100.00;101114.44;4954048;29;20039;-86
2023/06/28 03:28:25;;;;;;;11.77;4.28;;;;;;;12.66;100.00;101120.94;4954239;28;20023;-85
2023/06/28 03:30:51;;;;;;;9.98;4.40;;;;;;;12.70;100.00;101110.75;4970231;28;20175;-86
2023/06/28 03:33:16;;;;;;;7.93;3.63;;;;;;;12.67;100.00;101100.38;4954071;28;20470;-87
2023/06/28 03:35:42;;;;;;;10.67;4.43;;;;;;;12.59;100.00;101086.97;4954004;28;20513;-86
2023/06/28 03:38:07;;;;;;;13.63;4.67;;;;;;;12.65;100.00;101097.84;4954015;28;20019;-86
2023/06/28 03:40:32;;;;;;;8.53;3.33;;;;;;;12.59;100.00;101093.16;4954788;28;20047;-86
2023/06/28 03:42:58;;;;;;;13.00;4.23;;;;;;;12.61;100.00;101096.50;4938473;29;20501;-86
2023/06/28 03:45:23;;;;;;;11.70;3.90;;;;;;;12.60;100.00;101096.69;4970034;28;20069;-84
2023/06/28 03:47:49;;;;;;;19.70;4.40;;;;;;;12.69;100.00;101106.41;4954157;28;20058;-86
2023/06/28 03:50:14;;;;;;;16.03;5.37;;;;;;;12.70;100.00;101097.34;4954455;29;20031;-86
2023/06/28 03:52:39;;;;;;;15.03;3.83;;;;;;;12.78;100.00;101093.81;4957290;28;20037;-86
2023/06/28 03:55:06;;;;;;;9.50;3.60;;;;;;;12.89;100.00;101090.81;4962086;28;20038;-85
2023/06/28 03:57:31;;;;;;;;;;;;;;;12.95;100.00;101090.16;4946709;28;20055;-85
2023/06/28 03:59:57;;;;;;;;;;;;;;;12.93;100.00;101076.06;4974962;28;19982;-87
2023/06/28 04:02:22;;;;;;;16.33;4.20;;;;;;;12.98;100.00;101068.34;4954837;28;20369;-85
2023/06/28 04:04:48;;;;;;;8.23;4.10;;;;;;;13.09;100.00;101078.72;4955018;28;20043;-86
2023/06/28 04:07:13;;;;;;;16.60;4.57;;;;;;;13.22;100.00;101085.38;4956267;28;20114;-86
2023/06/28 04:09:39;;;;;;;8.00;3.33;;;;;;;13.25;100.00;101063.59;4955830;28;20042;-85
2023/06/28 04:12:05;;;;;;;10.85;3.95;;;;;;;13.42;100.00;101059.88;4955146;28;20034;-86
2023/06/28 04:14:30;;;;;;;7.25;3.33;;;;;;;13.44;100.00;101057.03;4954942;29;20031;-86
2023/06/28 04:16:56;;;;;;;8.80;3.50;;;;;;;13.49;100.00;101052.81;4938505;29;20035;-85
2023/06/28 04:19:21;;;;;;;10.27;3.97;;;;;;;13.68;100.00;101048.03;4951852;29;20082;-86
2023/06/28 04:21:47;;;;;;;7.97;3.87;;;;;;;13.61;100.00;101042.53;4954667;28;20279;-86
2023/06/28 04:24:13;;;;;;;11.73;3.97;;;;;;;13.58;100.00;101034.00;4954631;28;20039;-86
2023/06/28 04:26:38;;;;;;;14.43;4.07;;;;;;;13.64;100.00;101025.25;4955466;29;20039;-86
2023/06/28 04:29:03;;;;;;;10.43;3.67;;;;;;;13.82;100.00;101033.03;4955157;29;20058;-85
2023/06/28 04:31:29;;;;;;;6.70;3.63;;;;;;;13.82;100.00;101017.78;4955919;28;20509;-86
2023/06/28 04:33:57;;;;;;;8.73;3.30;;;;;;;13.98;100.00;101013.28;4955700;28;20035;-85
2023/06/28 04:36:26;;;;;;;11.85;3.58;;;;;;;14.09;100.00;101015.56;4940027;29;20023;-86
2023/06/28 04:38:52;;;;;;;7.72;3.28;;;;;;;14.19;100.00;101001.91;4952321;28;20036;-86
2023/06/28 04:41:20;;;;;;;11.60;3.75;;;;;;;14.13;100.00;100993.56;4954640;29;20035;-86
2023/06/28 04:43:45;;;;;;;6.97;3.08;;;;;;;14.08;100.00;100995.13;4938293;29;20031;-85
2023/06/28 04:46:11;;;;;;;9.50;3.20;;;;;;;14.28;100.00;100990.06;4958571;29;20037;-85
2023/06/28 04:48:42;;;;;;;8.55;2.95;;;;;;;14.30;100.00;100978.13;4959647;28;20090;-85
2023/06/28 04:51:08;;;;;;;10.35;3.70;;;;;;;14.43;100.00;100979.41;4965039;28;20035;-86
2023/06/28 04:53:33;;;;;;;13.77;3.50;;;;;;;14.62;100.00;100976.22;4962923;28;20126;-85
2023/06/28 04:56:00;;;;;;;7.50;3.20;;;;;;;14.63;100.00;100961.75;4957576;29;20047;-86
2023/06/28 04:58:26;;;;;;;10.85;3.10;;;;;;;14.69;100.00;100952.94;4955775;28;20122;-86
2023/06/28 05:00:51;;;;;;;10.93;3.95;;;;;;;14.83;100.00;100940.53;4968290;28;20071;-86
2023/06/28 05:03:17;;;;;;;8.03;3.20;;;;;;;14.91;100.00;100926.16;4939944;28;20117;-86
2023/06/28 05:05:42;;;;;;;9.10;3.97;;;;;;;15.09;100.00;100923.91;4954737;29;20046;-87
2023/06/28 05:08:09;;;;;;;10.88;3.70;;;;;;;15.10;100.00;100900.53;4954345;29;20030;-86
2023/06/28 05:10:36;;;;;;;7.53;2.53;;;;;;;15.20;100.00;100891.16;4953322;29;20046;-86
2023/06/28 05:13:01;;;;;;;13.23;3.47;;;;;;;15.15;100.00;100882.84;4952683;29;20023;-86
2023/06/28 05:15:32;;;;;;;17.30;4.67;;;;;;;15.35;100.00;100884.91;4952909;28;20086;-86
2023/06/28 05:17:57;;;;;;;10.80;3.60;;;;;;;15.28;100.00;100843.66;4937064;29;20294;-86
2023/06/28 05:20:22;;;;;;;13.07;4.30;;;;;;;15.44;100.00;100872.19;4954558;28;20031;-85
2023/06/28 05:22:51;;;;;;;11.50;2.90;;;;;;;15.85;100.00;100874.25;4952805;28;20046;-86
2023/06/28 05:25:17;;;;;;;19.08;3.63;;;;;;;15.96;100.00;100865.63;4952493;28;20034;-87
2023/06/28 05:27:42;;;;;;;13.50;3.27;;;;;;;16.35;100.00;100848.94;4953822;28;20031;-86
2023/06/28 05:30:09;;;;;;;7.95;3.60;;;;;;;16.20;100.00;100784.41;4936234;29;20031;-86
2023/06/28 05:32:34;;;;;;;;;;;;;;;16.76;100.00;100829.22;4968720;28;20561;-86
2023/06/28 05:35:02;;;;;;;;;;;;;;;16.81;100.00;100778.28;4952718;28;19910;-86
2023/06/28 05:37:27;;;;;;;8.77;3.33;;;;;;;17.26;100.00;100766.97;4968983;28;20365;-86
2023/06/28 05:39:52;;;;;;;11.60;2.50;;;;;;;17.91;100.00;100734.75;4950313;29;20023;-86
2023/06/28 05:42:18;;;;;;;11.05;3.30;;;;;;;18.75;100.00;100592.34;4982904;23;20046;-75
2023/06/28 05:44:43;;;;;;;12.00;2.83;;;;;;;19.38;100.00;100502.88;4978034;28;20396;-79
2023/06/28 05:47:09;;;;;;;5.53;2.40;;;;;;;19.29;100.00;100308.56;4975675;28;20029;-79
2023/06/28 05:49:37;;;;;;;9.57;2.43;;;;;;;19.79;100.00;100363.22;4990771;28;20361;-78
2023/06/28 05:52:04;;;;;;;12.20;2.20;;;;;;;20.51;100.00;100283.56;4994901;28;20096;-78
2023/06/28 05:54:30;;;;;;;12.30;2.33;;;;;;;21.03;100.00;100242.84;4994925;23;20676;-90
2023/06/28 05:56:57;;;;;;;10.70;2.33;;;;;;;21.92;100.00;100282.88;5020119;28;20046;-90
2023/06/28 05:59:22;;;;;;;11.00;2.55;;;;;;;21.76;100.00;100069.09;4992132;28;20769;-89
2023/06/28 06:01:47;;;;;;;7.60;2.17;;;;;;;21.93;100.00;100147.81;5021231;28;20085;-89
2023/06/28 06:04:13;;;;;;;8.43;2.00;;;;;;;20.75;99.90;99879.38;5018620;28;20033;-89
2023/06/28 06:06:38;;;;;;;7.90;2.30;;;;;;;19.93;100.00;100222.16;5020659;28;20280;-89
2023/06/28 06:09:03;;;;;;;12.10;3.10;;;;;;;18.08;100.00;100244.31;4998398;28;20112;-89
2023/06/28 06:11:32;;;;;;;8.23;2.43;;;;;;;18.61;100.00;100578.09;5003922;28;20034;-89
2023/06/28 06:13:57;;;;;;;8.77;2.60;;;;;;;17.45;100.00;100547.53;5000525;28;20034;-89
2023/06/28 06:16:23;;;;;;;13.30;3.33;;;;;;;17.27;100.00;100685.78;5001255;28;20066;-88
2023/06/28 06:18:48;;;;;;;9.80;2.70;;;;;;;17.84;100.00;100785.25;5009558;28;20053;-89
2023/06/28 06:21:13;;;;;;;11.10;2.43;;;;;;;17.51;100.00;100745.56;5020279;28;20034;-88
2023/06/28 06:23:39;;;;;;;13.53;2.80;;;;;;;17.83;100.00;100843.00;4985431;28;20508;-89
2023/06/28 06:26:04;;;;;;;8.73;2.90;;;;;;;17.73;100.00;100774.00;5026995;28;20402;-88
2023/06/28 06:28:29;;;;;;;7.30;2.03;;;;;;;17.92;100.00;100877.69;5019240;28;20029;-89
2023/06/28 06:30:55;;;;;;;7.83;3.07;;;;;;;19.23;100.00;100762.25;5002061;28;20044;-88
2023/06/28 06:33:20;;;;;;;9.17;2.37;;;;;;;19.32;100.00;100693.28;5010413;28;20080;-87
2023/06/28 06:35:45;;;;;;;15.90;2.53;;;;;;;18.96;100.00;100583.06;5004961;28;20030;-88
2023/06/28 06:38:11;;;;;;;7.83;2.30;;;;;;;19.37;100.00;100620.34;5013084;28;20104;-88
2023/06/28 06:40:36;;;;;;;16.73;3.47;;;;;;;19.78;100.00;100502.44;5027820;28;20050;-87
2023/06/28 06:43:02;;;;;;;11.53;2.03;;;;;;;20.57;100.00;100488.72;5010783;28;20113;-87
2023/06/28 06:45:27;;;;;;;7.38;2.72;;;;;;;21.15;100.00;100516.91;5022155;28;20073;-88
2023/06/28 06:47:53;;;;;;;11.57;2.93;;;;;;;21.81;99.76;100323.75;5022039;28;20039;-88
2023/06/28 06:50:18;;;;;;;10.57;2.43;;;;;;;21.60;93.33;100034.66;5026790;28;20330;-87
2023/06/28 06:52:44;;;;;;;9.37;2.30;;;;;;;21.30;92.07;100003.28;5019376;28;20484;-88
2023/06/28 06:55:12;;;;;;;7.35;2.58;;;;;;;21.92;89.86;100067.38;5031131;28;20091;-89
2023/06/28 06:57:38;;;;;;;11.52;2.85;;;;;;;22.51;86.48;100025.88;5008621;28;20038;-89
2023/06/28 07:00:08;;;;;;;12.20;2.17;;;;;;;22.17;84.14;99824.91;5000257;28;20038;-89
2023/06/28 07:02:34;;;;;;;9.18;2.85;;;;;;;22.07;85.99;100058.56;4986344;28;20038;-89
2023/06/28 07:04:59;;;;;;;7.65;2.00;;;;;;;20.97;85.92;99901.91;5009435;28;20022;-90
2023/06/28 07:07:25;;;;;;;8.63;1.80;;;;;;;20.35;86.55;99918.38;4993215;28;20042;-89
2023/06/28 07:09:50;;;;;;;5.37;1.80;;;;;;;21.39;85.20;100044.41;4995123;28;20283;-88
2023/06/28 07:12:15;;;;;;;12.57;3.17;;;;;;;20.11;85.56;99845.38;4993339;28;20033;-88
2023/06/28 07:14:41;;;;;;;10.98;2.35;;;;;;;19.83;89.13;100109.00;4992464;28;20408;-87
2023/06/28 07:17:06;;;;;;;13.43;2.58;;;;;;;21.35;88.41;100374.50;5011237;28;20068;-87
2023/06/28 07:19:32;;;;;;;7.77;2.33;;;;;;;20.87;84.46;99983.16;5011609;28;20030;-86
2023/06/28 07:21:57;;;;;;;7.80;2.30;;;;;;;20.38;87.06;100123.88;5013331;28;20128;-87
2023/06/28 07:24:22;;;;;;;7.27;2.30;;;;;;;19.60;89.72;100142.31;4997741;28;20037;-88
2023/06/28 07:26:48;;;;;;;5.03;2.00;;;;;;;19.86;92.51;100392.09;4996563;28;20038;-87
2023/06/28 07:29:13;;;;;;;4.67;1.57;;;;;;;19.19;92.03;100217.13;4988301;28;20088;-87
2023/06/28 07:31:38;;;;;;;5.40;1.80;;;;;;;19.96;91.96;100400.47;4996621;28;20519;-87
2023/06/28 07:34:06;;;;;;;8.00;2.30;;;;;;;21.31;87.25;100357.88;4998628;28;20037;-87
2023/06/28 07:36:32;;;;;;;8.27;2.45;;;;;;;22.38;83.88;100309.09;4985598;28;20089;-87
2023/06/28 07:38:58;;;;;;;5.47;1.67;;;;;;;22.16;79.73;99972.78;5003274;28;20034;-87
2023/06/28 07:41:23;;;;;;;5.93;1.67;;;;;;;21.82;80.57;100021.91;5010663;28;20030;-87
2023/06/28 07:43:49;;;;;;;8.57;1.80;;;;;;;20.49;82.43;99954.09;5022329;28;20106;-87
2023/06/28 07:46:14;;;;;;;;;;;;;;;21.03;81.72;100057.47;5011961;28;20033;-87
2023/06/28 07:48:40;;;;;;;7.57;2.50;;;;;;;21.70;82.08;100223.06;4979604;28;19910;-87
2023/06/28 07:51:05;;;;;;;10.33;2.23;;;;;;;20.70;79.09;99749.97;4997421;28;20034;-87
2023/06/28 07:53:31;;;;;;;6.23;1.77;;;;;;;20.83;81.99;100091.34;5010497;28;20108;-87
2023/06/28 07:55:56;;;;;;;5.22;1.77;;;;;;;21.63;79.59;100088.47;4996964;28;20096;-87
2023/06/28 07:58:21;;;;;;;8.13;1.70;;;;;;;22.39;78.15;100136.72;4989854;28;20109;-86
2023/06/28 08:00:47;;;;;;;4.50;1.70;;;;;;;22.12;76.48;99961.63;5000327;28;20069;-85
2023/06/28 08:03:12;;;;;;;5.77;1.63;;;;;;;22.71;75.30;100017.88;5009078;28;20034;-84
2023/06/28 08:05:38;;;;;;;6.97;2.35;;;;;;;23.03;70.61;99703.19;4999286;28;20217;-85
2023/06/28 08:08:03;;;;;;;6.33;1.37;;;;;;;23.26;69.43;99685.50;5003375;28;20021;-84
2023/06/28 08:10:29;;;;;;;3.33;1.43;;;;;;;23.11;69.80;99708.09;4994389;28;20579;-84
2023/06/28 08:12:55;;;;;;;5.73;1.67;;;;;;;23.32;70.72;99948.56;5009808;28;20034;-85
2023/06/28 08:15:20;;;;;;;5.63;1.67;;;;;;;22.36;69.38;99541.72;5003977;28;20029;-86
2023/06/28 08:17:49;;;;;;;6.23;1.57;;;;;;;22.87;71.54;99939.88;5008288;28;20026;-87
2023/06/28 08:20:14;;;;;;;5.30;1.70;;;;;;;23.28;70.77;99978.25;4990581;28;20281;-84
2023/06/28 08:22:40;;;;;;;8.80;2.50;;;;;;;23.70;69.73;100010.00;4999344;28;20084;-86
2023/06/28 08:25:05;;;;;;;9.18;1.60;;;;;;;23.73;67.69;99810.53;5019945;28;20285;-86
2023/06/28 08:27:35;;;;;;;3.90;1.38;;;;;;;23.65;65.42;99554.16;5002970;28;20034;-86
2023/06/28 08:30:00;;;;;;;3.28;1.73;;;;;;;23.89;64.23;99546.19;5002417;28;20026;-84
2023/06/28 08:32:26;;;;;;;5.63;1.67;;;;;;;24.91;63.75;99784.94;4986345;28;20525;-86
2023/06/28 08:34:51;;;;;;;4.43;1.45;;;;;;;24.07;59.88;99111.28;5018383;28;20488;-85
2023/06/28 08:37:17;;;;;;;7.72;1.83;;;;;;;24.20;61.45;99460.38;5009619;28;20032;-85
2023/06/28 08:39:42;;;;;;;6.53;1.67;;;;;;;24.07;61.75;99471.94;5025322;28;20037;-85
2023/06/28 08:42:08;;;;;;;11.80;2.00;;;;;;;24.25;62.27;99620.44;4998733;28;20324;-85
2023/06/28 08:44:33;;;;;;;5.38;1.98;;;;;;;23.36;62.15;99375.06;5006450;28;20336;-85
2023/06/28 08:47:00;;;;;;;5.45;1.40;;;;;;;23.01;62.53;99357.78;4992893;28;20523;-86
2023/06/28 08:49:27;;;;;;;5.45;2.53;;;;;;;23.30;62.91;99509.63;5002118;28;20491;-86
2023/06/28 08:51:54;;;;;;;5.95;1.40;;;;;;;23.67;61.97;99511.09;5015410;28;20091;-85
2023/06/28 08:54:22;;;;;;;6.78;1.50;;;;;;;23.07;61.22;99209.72;5002622;28;20042;-86
2023/06/28 08:56:50;;;;;;;5.40;1.13;;;;;;;24.20;61.25;99650.47;4999737;28;20056;-85
2023/06/28 08:59:16;;;;;;;3.22;1.30;;;;;;;23.82;58.65;99169.63;5005535;28;20038;-85
2023/06/28 09:01:41;;;;;;;5.22;1.92;;;;;;;24.07;59.13;99351.16;5001033;28;20721;-85
2023/06/28 09:04:06;;;;;;;7.43;1.70;;;;;;;24.64;60.43;99693.38;5012860;28;20381;-86
2023/06/28 09:06:33;;;;;;;3.40;1.10;;;;;;;25.21;58.71;99615.44;5003872;28;20022;-85
2023/06/28 09:09:00;;;;;;;3.85;1.30;;;;;;;25.26;58.95;99663.75;5009073;28;20025;-85
2023/06/28 09:11:26;;;;;;;6.05;1.83;;;;;;;23.75;60.24;99407.00;5020381;28;20025;-85
2023/06/28 09:13:52;;;;;;;5.07;1.88;;;;;;;25.04;59.40;99732.44;5003817;28;20088;-85
2023/06/28 09:16:18;;;;;;;;;;;;;;;24.84;57.20;99393.00;4996733;28;20137;-83
2023/06/28 09:18:43;;;;;;;2.97;1.23;;;;;;;24.41;56.80;99221.03;5002395;28;20012;-85
2023/06/28 09:21:08;;;;;;;2.77;1.30;;;;;;;24.67;56.26;99239.84;4990841;28;20050;-84
2023/06/28 09:23:34;;;;;;;4.27;1.00;;;;;;;24.90;55.58;99248.28;5006610;28;20452;-84
2023/06/28 09:25:59;;;;;;;7.85;2.08;;;;;;;24.04;56.05;98987.28;5021090;28;20322;-83
2023/06/28 09:28:33;;;;;;;4.82;1.13;;;;;;;23.73;58.04;99240.25;5021788;28;20034;-85
2023/06/28 09:30:59;;;;;;;7.18;1.38;;;;;;;23.44;60.22;99430.88;5012242;28;20080;-85
2023/06/28 09:33:26;;;;;;;4.30;1.33;;;;;;;24.06;58.47;99425.88;5016724;28;20393;-85
2023/06/28 09:35:56;;;;;;;2.60;1.10;;;;;;;24.26;56.43;99256.66;5010542;28;20038;-84
2023/06/28 09:38:22;;;;;;;4.93;1.23;;;;;;;24.93;56.88;99521.47;5007587;28;20112;-85
2023/06/28 09:40:53;;;;;;;4.10;1.52;;;;;;;25.84;56.08;99712.13;5027959;28;20144;-83
2023/06/28 09:43:18;;;;;;;5.15;1.63;;;;;;;26.21;54.39;99541.88;4986530;28;20042;-84
2023/06/28 09:45:44;;;;;;;6.73;1.40;;;;;;;25.62;52.20;99030.25;5002406;28;20079;-85
2023/06/28 09:48:09;;;;;;;4.47;1.43;;;;;;;25.81;53.33;99294.47;5006821;28;20285;-83
2023/06/28 09:50:41;;;;;;;3.88;1.08;;;;;;;25.93;51.65;99067.13;5010737;28;20022;-85
2023/06/28 09:53:11;;;;;;;4.65;1.80;;;;;;;25.98;49.35;98813.56;4998688;28;20030;-84
2023/06/28 09:55:38;;;;;;;3.60;1.13;;;;;;;25.92;50.90;99047.19;4987146;28;20045;-85
2023/06/28 09:58:04;;;;;;;3.63;1.73;;;;;;;26.26;51.56;99312.03;5005902;28;20481;-82
2023/06/28 10:00:31;;;;;;;3.88;1.20;;;;;;;25.75;51.28;98992.28;5012214;28;20044;-85
2023/06/28 10:02:58;;;;;;;7.20;1.70;;;;;;;26.49;50.65;99230.88;5004468;28;20017;-85
2023/06/28 10:05:25;;;;;;;7.05;1.23;;;;;;;26.29;49.66;99004.25;5017474;28;20046;-84
2023/06/28 10:07:52;;;;;;;4.60;1.35;;;;;;;26.21;51.21;99153.50;5007199;28;20022;-88
2023/06/28 10:10:18;;;;;;;3.97;1.35;;;;;;;24.14;50.39;98422.06;5022901;28;20083;-87
2023/06/28 10:12:45;;;;;;;1.80;1.10;;;;;;;25.04;49.61;98750.38;4999416;28;20120;-87
2023/06/28 10:15:15;;;;;;;3.28;1.10;;;;;;;25.69;49.00;98861.22;4988845;28;20037;-87
2023/06/28 10:17:41;;;;;;;3.30;1.33;;;;;;;26.69;48.93;99166.72;5009231;28;20042;-87
2023/06/28 10:20:07;;;;;;;5.60;1.40;;;;;;;27.11;48.58;99270.66;5002709;28;20086;-87
2023/06/28 10:22:33;;;;;;;4.15;1.50;;;;;;;27.06;48.50;99226.97;5008998;28;20034;-87
2023/06/28 10:25:01;;;;;;;3.83;1.33;;;;;;;27.36;48.11;99209.81;5032526;28;20041;-86
2023/06/28 10:27:27;;;;;;;3.60;1.15;;;;;;;26.85;48.48;99082.31;5015603;28;20042;-88
2023/06/28 10:29:54;;;;;;;6.70;2.10;;;;;;;27.09;49.23;99305.75;4999449;28;20198;-83
2023/06/28 10:32:20;;;;;;;7.65;1.85;;;;;;;25.99;49.62;98973.75;4992229;28;20044;-86
2023/06/28 10:34:49;;;;;;;1.70;1.13;;;;;;;26.99;49.61;99369.78;5017884;28;20026;-86
2023/06/28 10:37:22;;;;;;;3.50;1.23;;;;;;;27.68;48.29;99338.75;5013815;28;20045;-85
2023/06/28 10:39:51;;;;;;;4.30;1.90;;;;;;;27.46;48.03;99249.88;5007792;28;20045;-86
2023/06/28 10:42:19;;;;;;;3.47;1.52;;;;;;;27.48;47.52;99138.00;4996138;28;20018;-86
2023/06/28 10:44:51;;;;;;;4.75;1.63;;;;;;;27.64;48.73;99423.50;4998374;28;20030;-85
2023/06/28 10:47:16;;;;;;;3.03;1.50;;;;;;;27.81;46.56;99066.41;5011036;28;20065;-85
2023/06/28 10:49:42;;;;;;;4.85;2.03;;;;;;;27.67;47.46;99200.84;5001356;28;20048;-87
2023/06/28 10:52:18;;;;;;;4.68;1.52;;;;;;;26.94;47.65;99020.19;5018060;28;20034;-85
2023/06/28 10:54:44;;;;;;;2.03;0.77;;;;;;;27.29;46.93;98953.88;4978055;28;20046;-86
2023/06/28 10:57:10;;;;;;;2.72;1.00;;;;;;;28.13;46.44;99185.13;4975139;28;20075;-85
2023/06/28 10:59:42;;;;;;;3.50;1.20;;;;;;;27.38;46.33;98847.84;5000351;28;20150;-87
2023/06/28 11:02:07;;;;;;;4.10;1.10;;;;;;;27.17;45.95;98771.72;5014439;28;20040;-85
2023/06/28 11:04:32;;;;;;;2.95;0.90;;;;;;;27.27;46.76;98917.75;5018504;28;20121;-84
2023/06/28 11:07:07;;;;;;;3.90;1.30;;;;;;;26.79;46.76;98770.69;5008171;28;20037;-86
2023/06/28 11:09:32;;;;;;;5.30;1.63;;;;;;;26.75;47.99;98926.53;5006250;28;20061;-86
2023/06/28 11:11:59;;;;;;;3.92;1.20;;;;;;;27.44;46.61;99032.06;5005323;28;20073;-86
2023/06/28 11:14:25;;;;;;;5.38;1.10;;;;;;;27.52;45.40;98814.81;5004447;28;20072;-86
2023/06/28 11:16:51;;;;;;;;;;;;;;;28.45;45.75;99263.53;5005640;28;20070;-86